Time;durP1;ratioP1;P1;durP2;ratioP2;P2;SDS_P1;SDS_P2;PMS_P1;PMS_P2;Temp;Humidity;BMP_temperature;BMP_pressure;BME280_temperature;BME280_humidity;BME280_pressure;Samples;Min_cycle;Max_cycle;Signal;HPM_P1;HPM_P2
2021/08/23 00:00:44;;;;;;;11.43;10.40;;;;;;;;;;5033831;28;20545;-56
2021/08/23 00:03:11;;;;;;;11.40;10.30;;;;;;;;;;5033601;28;21003;-57
2021/08/23 00:05:38;;;;;;;10.87;9.77;;;;;;;;;;5033680;28;20495;-56
2021/08/23 00:08:07;;;;;;;10.40;9.40;;;;;;;;;;5033826;28;20519;-56
2021/08/23 00:10:34;;;;;;;13.83;9.70;;;;;;;;;;5033609;28;20510;-57
2021/08/23 00:13:01;;;;;;;9.00;8.20;;;;;;;;;;5033501;28;20477;-56
2021/08/23 00:15:28;;;;;;;9.80;9.00;;;;;;;;;;5033286;28;20444;-56
2021/08/23 00:17:57;;;;;;;11.47;8.43;;;;;;;;;;5033723;28;20523;-56
2021/08/23 00:20:41;;;;;;;10.00;9.03;;;;;;;;;;5033255;28;20502;-56
2021/08/23 00:23:10;;;;;;;8.77;7.97;;;;;;;;;;5033680;28;20508;-56
2021/08/23 00:25:38;;;;;;;9.67;8.77;;;;;;;;;;5037641;28;20528;-56
2021/08/23 00:28:05;;;;;;;10.70;9.07;;;;;;;;;;5038305;28;20465;-55
2021/08/23 00:30:32;;;;;;;10.40;9.50;;;;;;;;;;5040614;28;20511;-56
2021/08/23 00:33:01;;;;;;;9.00;8.10;;;;;;;;;;5039710;28;20472;-56
2021/08/23 00:35:28;;;;;;;8.70;7.90;;;;;;;;;;5037447;28;20498;-57
2021/08/23 00:37:56;;;;;;;9.17;8.27;;;;;;;;;;5037596;28;20461;-57
2021/08/23 00:40:23;;;;;;;8.60;7.90;;;;;;;;;;5037534;28;20471;-56
2021/08/23 00:42:51;;;;;;;8.10;7.40;;;;;;;;;;5037422;28;20999;-57
2021/08/23 00:45:19;;;;;;;8.93;8.20;;;;;;;;;;5037613;28;20449;-57
2021/08/23 00:50:22;;;;;;;8.77;7.00;;;;;;;;;;5053190;22;20487;-61
2021/08/23 00:52:49;;;;;;;7.20;6.60;;;;;;;;;;5036746;28;20477;-62
2021/08/23 00:55:17;;;;;;;8.00;7.23;;;;;;;;;;5036832;28;20440;-61
2021/08/23 00:57:44;;;;;;;8.60;7.60;;;;;;;;;;5036518;28;20502;-62
2021/08/23 01:00:12;;;;;;;9.67;7.60;;;;;;;;;;5036194;28;20914;-61
2021/08/23 01:02:42;;;;;;;7.80;6.97;;;;;;;;;;5036138;28;20452;-61
2021/08/23 01:05:11;;;;;;;8.27;6.53;;;;;;;;;;5036470;28;20444;-61
2021/08/23 01:07:42;;;;;;;9.37;7.10;;;;;;;;;;5036141;28;20499;-61
2021/08/23 01:10:12;;;;;;;8.03;7.30;;;;;;;;;;5036367;28;20469;-61
2021/08/23 01:12:39;;;;;;;8.60;7.80;;;;;;;;;;5036357;28;20440;-61
2021/08/23 01:15:07;;;;;;;7.83;7.03;;;;;;;;;;5036336;28;20502;-62
2021/08/23 01:17:34;;;;;;;7.90;7.20;;;;;;;;;;5036245;28;20440;-61
2021/08/23 01:20:03;;;;;;;8.53;7.73;;;;;;;;;;5035825;28;20461;-61
2021/08/23 01:22:32;;;;;;;8.63;7.47;;;;;;;;;;5035807;28;20878;-61
2021/08/23 01:25:02;;;;;;;9.53;7.53;;;;;;;;;;5035795;28;20436;-61
2021/08/23 01:27:30;;;;;;;9.20;7.77;;;;;;;;;;5035774;28;20935;-61
2021/08/23 01:29:58;;;;;;;7.77;7.10;;;;;;;;;;5036050;28;20460;-62
2021/08/23 01:32:27;;;;;;;10.27;8.10;;;;;;;;;;5035763;28;20855;-61
2021/08/23 01:34:56;;;;;;;7.97;7.27;;;;;;;;;;5035313;28;20559;-62
2021/08/23 01:37:24;;;;;;;7.50;6.80;;;;;;;;;;5035732;28;20929;-62
2021/08/23 01:39:51;;;;;;;8.10;6.87;;;;;;;;;;5035751;28;20464;-62
2021/08/23 01:42:19;;;;;;;9.47;6.80;;;;;;;;;;5035591;28;20449;-61
2021/08/23 01:44:46;;;;;;;7.50;6.80;;;;;;;;;;5035845;28;20528;-62
2021/08/23 01:47:13;;;;;;;6.90;6.30;;;;;;;;;;5035473;28;20506;-62
2021/08/23 01:49:42;;;;;;;9.00;6.83;;;;;;;;;;5035334;28;20477;-62
2021/08/23 01:52:10;;;;;;;9.17;7.30;;;;;;;;;;5035301;28;20499;-62
2021/08/23 01:54:38;;;;;;;7.13;6.30;;;;;;;;;;5035296;28;21058;-62
2021/08/23 01:57:05;;;;;;;7.30;6.63;;;;;;;;;;5035506;28;20491;-62
2021/08/23 01:59:32;;;;;;;8.00;6.10;;;;;;;;;;5035089;28;20465;-62
2021/08/23 02:02:00;;;;;;;8.60;6.47;;;;;;;;;;5035083;28;20825;-62
2021/08/23 02:04:27;;;;;;;7.53;6.23;;;;;;;;;;5035413;28;20437;-62
2021/08/23 02:06:55;;;;;;;9.20;6.03;;;;;;;;;;5035290;28;20511;-62
2021/08/23 02:09:23;;;;;;;6.43;5.83;;;;;;;;;;5035232;28;20494;-62
2021/08/23 02:11:50;;;;;;;7.03;6.33;;;;;;;;;;5034888;28;20453;-62
2021/08/23 02:14:17;;;;;;;6.63;5.80;;;;;;;;;;5035129;28;20477;-62
2021/08/23 02:16:44;;;;;;;8.40;6.57;;;;;;;;;;5035141;28;20449;-62
2021/08/23 02:19:12;;;;;;;7.50;6.80;;;;;;;;;;5034690;28;20531;-62
2021/08/23 02:21:46;;;;;;;10.47;6.33;;;;;;;;;;5035068;28;20445;-62
2021/08/23 02:24:14;;;;;;;6.73;6.03;;;;;;;;;;5034758;28;20528;-62
2021/08/23 02:26:42;;;;;;;6.50;5.90;;;;;;;;;;5034910;28;20504;-62
2021/08/23 02:29:09;;;;;;;7.00;6.40;;;;;;;;;;5036137;28;20518;-62
2021/08/23 02:31:36;;;;;;;8.40;6.70;;;;;;;;;;5035480;28;20444;-62
2021/08/23 02:34:04;;;;;;;6.20;5.63;;;;;;;;;;5035043;28;20481;-62
2021/08/23 02:36:31;;;;;;;7.20;6.60;;;;;;;;;;5034939;28;20449;-61
2021/08/23 02:38:58;;;;;;;6.57;5.97;;;;;;;;;;5034532;28;20472;-61
2021/08/23 02:41:27;;;;;;;7.10;6.40;;;;;;;;;;5034757;28;20877;-63
2021/08/23 02:43:54;;;;;;;6.20;5.60;;;;;;;;;;5034855;28;20512;-62
2021/08/23 02:46:22;;;;;;;7.50;6.30;;;;;;;;;;5033927;28;20499;-62
2021/08/23 02:48:49;;;;;;;6.87;6.10;;;;;;;;;;5033619;28;20530;-62
2021/08/23 02:51:16;;;;;;;7.03;6.43;;;;;;;;;;5034443;28;20871;-62
2021/08/23 02:53:43;;;;;;;6.27;5.43;;;;;;;;;;5034106;28;20476;-62
2021/08/23 02:56:10;;;;;;;7.53;6.90;;;;;;;;;;5034505;28;20445;-62
2021/08/23 02:58:39;;;;;;;6.77;6.17;;;;;;;;;;5034004;28;20499;-62
2021/08/23 03:01:07;;;;;;;11.00;6.10;;;;;;;;;;5034008;28;20929;-62
2021/08/23 03:03:35;;;;;;;6.30;5.70;;;;;;;;;;5034285;28;20440;-61
2021/08/23 03:06:02;;;;;;;7.93;6.83;;;;;;;;;;5034020;28;21001;-62
2021/08/23 03:08:30;;;;;;;8.77;7.13;;;;;;;;;;5033767;28;21043;-62
2021/08/23 03:11:05;;;;;;;7.47;6.77;;;;;;;;;;5034092;28;20449;-61
2021/08/23 03:13:32;;;;;;;7.80;6.40;;;;;;;;;;5033919;28;21042;-63
2021/08/23 03:16:01;;;;;;;8.00;7.07;;;;;;;;;;5034037;28;20441;-62
2021/08/23 03:18:28;;;;;;;8.40;6.57;;;;;;;;;;5033865;28;20506;-62
2021/08/23 03:20:55;;;;;;;9.00;8.10;;;;;;;;;;5033929;28;20445;-62
2021/08/23 03:23:23;;;;;;;8.47;7.67;;;;;;;;;;5033563;28;20445;-62
2021/08/23 03:25:50;;;;;;;8.00;7.10;;;;;;;;;;5033575;28;20503;-62
2021/08/23 03:28:17;;;;;;;9.80;7.50;;;;;;;;;;5033828;28;20464;-63
2021/08/23 03:30:44;;;;;;;8.43;7.63;;;;;;;;;;5033835;28;20445;-63
2021/08/23 03:33:13;;;;;;;8.17;7.33;;;;;;;;;;5033780;28;20441;-62
2021/08/23 03:35:41;;;;;;;8.00;7.23;;;;;;;;;;5033576;28;20476;-62
2021/08/23 03:38:08;;;;;;;8.40;7.17;;;;;;;;;;5033552;28;20491;-63
2021/08/23 03:40:35;;;;;;;10.77;7.50;;;;;;;;;;5033616;28;20496;-62
2021/08/23 03:43:02;;;;;;;7.20;6.60;;;;;;;;;;5033654;28;20441;-62
2021/08/23 03:45:30;;;;;;;7.83;7.13;;;;;;;;;;5033551;28;20914;-62
2021/08/23 03:47:57;;;;;;;10.30;6.83;;;;;;;;;;5033103;28;20448;-64
2021/08/23 03:50:26;;;;;;;9.33;6.97;;;;;;;;;;5032979;28;20932;-63
2021/08/23 03:52:53;;;;;;;9.10;7.50;;;;;;;;;;5033460;28;20818;-62
2021/08/23 03:55:22;;;;;;;9.63;7.40;;;;;;;;;;5033078;28;20468;-62
2021/08/23 03:57:49;;;;;;;9.60;7.63;;;;;;;;;;5033199;28;20634;-62
2021/08/23 04:00:16;;;;;;;6.80;6.07;;;;;;;;;;5033100;28;20542;-62
2021/08/23 04:02:45;;;;;;;7.37;6.77;;;;;;;;;;5033370;28;20495;-62
2021/08/23 04:08:29;;;;;;;7.93;7.13;;;;;;;;;;5093616;27;20549;-63
2021/08/23 04:10:56;;;;;;;8.33;7.53;;;;;;;;;;5091624;28;20846;-63
2021/08/23 04:13:23;;;;;;;8.03;7.20;;;;;;;;;;5090724;28;20496;-62
2021/08/23 04:15:50;;;;;;;11.03;7.80;;;;;;;;;;5090689;28;20442;-62
2021/08/23 04:18:18;;;;;;;7.67;6.97;;;;;;;;;;5090694;28;20459;-63
2021/08/23 04:20:45;;;;;;;9.30;8.30;;;;;;;;;;5090605;28;20519;-63
2021/08/23 04:23:12;;;;;;;9.30;7.50;;;;;;;;;;5090250;28;20447;-62
2021/08/23 04:25:42;;;;;;;7.50;6.90;;;;;;;;;;5090540;28;20435;-62
2021/08/23 04:28:09;;;;;;;8.07;7.30;;;;;;;;;;5090596;28;20536;-62
2021/08/23 04:30:36;;;;;;;10.03;7.60;;;;;;;;;;5090230;28;20914;-62
2021/08/23 04:33:04;;;;;;;8.37;7.57;;;;;;;;;;5090527;28;20491;-63
2021/08/23 04:35:31;;;;;;;9.53;7.40;;;;;;;;;;5090292;28;20495;-62
2021/08/23 04:37:58;;;;;;;8.03;7.30;;;;;;;;;;5090283;28;20488;-64
2021/08/23 04:40:25;;;;;;;9.03;8.23;;;;;;;;;;5090275;28;20438;-63
2021/08/23 04:42:55;;;;;;;9.03;7.20;;;;;;;;;;5089908;28;20499;-62
2021/08/23 04:45:22;;;;;;;8.33;7.50;;;;;;;;;;5089804;28;20446;-63
2021/08/23 04:47:50;;;;;;;12.67;7.53;;;;;;;;;;5090232;28;20487;-63
2021/08/23 04:50:17;;;;;;;8.03;7.33;;;;;;;;;;5090196;28;20532;-62
2021/08/23 04:52:45;;;;;;;8.73;7.73;;;;;;;;;;5090209;28;20439;-62
2021/08/23 04:55:12;;;;;;;8.10;7.30;;;;;;;;;;5090143;28;20450;-62
2021/08/23 04:57:40;;;;;;;7.13;6.43;;;;;;;;;;5090241;28;20495;-62
2021/08/23 05:00:10;;;;;;;7.33;6.53;;;;;;;;;;5090225;28;20515;-63
2021/08/23 05:02:37;;;;;;;8.33;7.50;;;;;;;;;;5089793;28;20556;-63
2021/08/23 05:05:05;;;;;;;7.07;6.40;;;;;;;;;;5089684;28;20492;-62
2021/08/23 05:07:32;;;;;;;8.10;7.30;;;;;;;;;;5089280;28;21006;-63
2021/08/23 05:09:59;;;;;;;10.17;7.57;;;;;;;;;;5089827;28;20462;-62
2021/08/23 05:12:27;;;;;;;7.17;6.57;;;;;;;;;;5101268;28;20454;-61
2021/08/23 05:14:54;;;;;;;9.70;6.40;;;;;;;;;;5100570;28;20929;-62
2021/08/23 05:17:22;;;;;;;7.20;6.60;;;;;;;;;;5101592;28;20484;-62
2021/08/23 05:19:50;;;;;;;6.77;6.17;;;;;;;;;;5085886;28;20528;-63
2021/08/23 05:22:18;;;;;;;8.37;6.40;;;;;;;;;;5077673;28;20455;-63
2021/08/23 05:24:46;;;;;;;7.53;6.70;;;;;;;;;;5075882;28;20481;-63
2021/08/23 05:27:13;;;;;;;8.43;6.63;;;;;;;;;;5075795;28;20922;-63
2021/08/23 05:29:41;;;;;;;6.67;6.07;;;;;;;;;;5076327;28;20975;-63
2021/08/23 05:32:08;;;;;;;8.23;6.60;;;;;;;;;;5076285;28;20534;-61
2021/08/23 05:34:37;;;;;;;8.40;6.40;;;;;;;;;;5076712;28;20435;-62
2021/08/23 05:37:04;;;;;;;9.30;6.03;;;;;;;;;;5076412;28;20447;-62
2021/08/23 05:39:31;;;;;;;8.10;6.10;;;;;;;;;;5075859;28;20467;-62
2021/08/23 05:41:59;;;;;;;6.80;6.20;;;;;;;;;;5075953;28;20500;-63
2021/08/23 05:44:26;;;;;;;9.77;7.03;;;;;;;;;;5076608;28;20439;-63
2021/08/23 05:46:53;;;;;;;8.10;6.70;;;;;;;;;;5076155;28;20471;-62
2021/08/23 05:49:20;;;;;;;7.23;6.63;;;;;;;;;;5080784;28;20552;-63
2021/08/23 05:51:49;;;;;;;7.73;7.03;;;;;;;;;;5077967;28;20439;-63
2021/08/23 05:54:16;;;;;;;6.67;6.17;;;;;;;;;;5076919;28;20443;-62
2021/08/23 05:56:43;;;;;;;7.10;6.50;;;;;;;;;;5076191;28;20435;-61
2021/08/23 05:59:11;;;;;;;6.70;6.10;;;;;;;;;;5075992;28;20463;-63
2021/08/23 06:01:38;;;;;;;8.53;6.60;;;;;;;;;;5075445;28;20444;-62
2021/08/23 06:04:05;;;;;;;6.37;5.70;;;;;;;;;;5076093;28;20452;-63
2021/08/23 06:06:34;;;;;;;7.83;5.70;;;;;;;;;;5075525;28;20451;-63
2021/08/23 06:09:02;;;;;;;8.23;5.80;;;;;;;;;;5075408;28;20483;-61
2021/08/23 06:11:29;;;;;;;8.30;5.13;;;;;;;;;;5074877;28;20815;-61
2021/08/23 06:13:58;;;;;;;6.23;5.47;;;;;;;;;;5078357;28;20443;-63
2021/08/23 06:16:25;;;;;;;5.87;5.27;;;;;;;;;;5075972;28;20762;-63
2021/08/23 06:18:52;;;;;;;5.90;5.27;;;;;;;;;;5075543;28;20919;-64
2021/08/23 06:21:19;;;;;;;9.00;4.73;;;;;;;;;;5075486;28;20435;-62
2021/08/23 06:23:47;;;;;;;5.27;4.60;;;;;;;;;;5075938;28;20443;-62
2021/08/23 06:26:15;;;;;;;5.53;5.00;;;;;;;;;;5075449;28;20451;-63
2021/08/23 06:28:46;;;;;;;5.20;4.17;;;;;;;;;;5075126;28;20852;-62
2021/08/23 06:31:13;;;;;;;7.50;4.50;;;;;;;;;;5073745;28;20518;-62
2021/08/23 06:33:40;;;;;;;8.37;4.03;;;;;;;;;;5074970;28;20440;-63
2021/08/23 06:36:08;;;;;;;5.50;4.43;;;;;;;;;;5075363;28;20500;-63
2021/08/23 06:38:35;;;;;;;4.30;3.73;;;;;;;;;;5074889;28;20513;-62
2021/08/23 06:41:02;;;;;;;5.10;3.80;;;;;;;;;;5074681;28;20803;-62
2021/08/23 06:43:31;;;;;;;5.20;3.50;;;;;;;;;;5074858;28;20451;-62
2021/08/23 06:45:58;;;;;;;3.97;3.40;;;;;;;;;;5074457;28;20447;-62
2021/08/23 06:48:25;;;;;;;3.80;3.50;;;;;;;;;;5098051;22;20827;-57
2021/08/23 06:50:53;;;;;;;7.93;4.50;;;;;;;;;;5034268;28;20461;-56
2021/08/23 06:53:20;;;;;;;6.27;3.47;;;;;;;;;;5033826;28;20536;-54
2021/08/23 06:55:48;;;;;;;4.10;3.70;;;;;;;;;;5034284;28;20453;-54
2021/08/23 06:58:15;;;;;;;5.57;3.43;;;;;;;;;;5033947;28;20441;-52
2021/08/23 07:00:44;;;;;;;4.00;3.47;;;;;;;;;;5034959;28;20480;-54
2021/08/23 07:03:11;;;;;;;5.27;3.90;;;;;;;;;;5034273;28;20453;-55
2021/08/23 07:05:38;;;;;;;9.70;3.83;;;;;;;;;;5033997;28;20453;-56
2021/08/23 07:08:06;;;;;;;4.20;3.80;;;;;;;;;;5033961;28;20478;-55
2021/08/23 07:10:33;;;;;;;4.10;2.90;;;;;;;;;;5033590;28;20465;-56
2021/08/23 07:13:01;;;;;;;4.23;3.60;;;;;;;;;;5033890;28;20457;-56
2021/08/23 07:15:28;;;;;;;3.30;2.90;;;;;;;;;;5033911;28;20507;-56
2021/08/23 07:17:57;;;;;;;6.53;3.70;;;;;;;;;;5033635;28;20793;-56
2021/08/23 07:20:24;;;;;;;3.70;3.13;;;;;;;;;;5033435;28;20477;-56
2021/08/23 07:22:51;;;;;;;4.50;3.60;;;;;;;;;;5033494;28;20945;-55
2021/08/23 07:25:18;;;;;;;4.03;3.20;;;;;;;;;;5033439;28;20441;-56
2021/08/23 07:27:46;;;;;;;4.00;3.33;;;;;;;;;;5033655;28;20546;-55
2021/08/23 07:30:14;;;;;;;4.77;3.60;;;;;;;;;;5033464;28;20477;-56
2021/08/23 07:32:43;;;;;;;4.83;3.20;;;;;;;;;;5033712;28;20468;-56
2021/08/23 07:35:11;;;;;;;4.53;3.00;;;;;;;;;;5033456;28;20448;-56
2021/08/23 07:37:44;;;;;;;6.60;3.80;;;;;;;;;;5033156;28;20995;-56
2021/08/23 07:40:12;;;;;;;5.40;3.50;;;;;;;;;;5033358;28;20643;-56
2021/08/23 07:42:39;;;;;;;4.30;3.90;;;;;;;;;;5033165;28;20463;-55
2021/08/23 07:45:07;;;;;;;5.83;3.67;;;;;;;;;;5033718;28;20449;-56
2021/08/23 07:47:34;;;;;;;4.00;3.20;;;;;;;;;;5033300;28;20481;-56
2021/08/23 07:50:02;;;;;;;3.70;3.40;;;;;;;;;;5033223;28;20516;-56
2021/08/23 07:52:30;;;;;;;3.73;3.33;;;;;;;;;;5033824;28;20941;-56
2021/08/23 07:54:58;;;;;;;7.40;3.30;;;;;;;;;;5033509;28;20818;-55
2021/08/23 07:57:25;;;;;;;3.90;3.03;;;;;;;;;;5032981;28;20456;-55
2021/08/23 07:59:52;;;;;;;7.13;3.07;;;;;;;;;;5033255;28;20500;-56
2021/08/23 08:02:19;;;;;;;4.33;3.00;;;;;;;;;;5033066;28;20575;-55
2021/08/23 08:04:48;;;;;;;4.53;2.70;;;;;;;;;;5033204;28;20519;-56
2021/08/23 08:07:15;;;;;;;3.37;3.07;;;;;;;;;;5032877;28;20449;-55
2021/08/23 08:09:44;;;;;;;11.03;3.43;;;;;;;;;;5032847;28;20469;-56
2021/08/23 08:12:11;;;;;;;3.50;3.20;;;;;;;;;;5032938;28;20452;-55
2021/08/23 08:14:38;;;;;;;7.13;3.60;;;;;;;;;;5032697;28;20449;-56
2021/08/23 08:17:05;;;;;;;4.70;3.07;;;;;;;;;;5032975;28;20433;-56
2021/08/23 08:19:33;;;;;;;5.10;2.70;;;;;;;;;;5033015;28;20523;-57
2021/08/23 08:22:05;;;;;;;3.93;2.87;;;;;;;;;;5033030;28;20444;-56
2021/08/23 08:24:32;;;;;;;4.47;3.43;;;;;;;;;;5033635;28;20433;-57
2021/08/23 08:27:01;;;;;;;3.20;2.73;;;;;;;;;;5032732;28;20444;-55
2021/08/23 08:29:28;;;;;;;5.20;3.43;;;;;;;;;;5032779;28;20538;-56
2021/08/23 08:31:55;;;;;;;4.43;3.20;;;;;;;;;;5033518;28;20503;-56
2021/08/23 08:34:22;;;;;;;5.17;3.50;;;;;;;;;;5032891;28;20884;-56
2021/08/23 08:36:50;;;;;;;4.00;3.43;;;;;;;;;;5032518;28;20449;-56
2021/08/23 08:39:17;;;;;;;3.47;3.13;;;;;;;;;;5033127;28;20477;-56
2021/08/23 08:41:44;;;;;;;3.80;3.30;;;;;;;;;;5032823;28;20514;-56
2021/08/23 08:44:13;;;;;;;3.97;3.20;;;;;;;;;;5032372;28;20940;-54
2021/08/23 08:46:40;;;;;;;4.33;3.17;;;;;;;;;;5032887;28;20855;-56
2021/08/23 08:49:08;;;;;;;4.47;3.20;;;;;;;;;;5032166;28;20493;-55
2021/08/23 08:51:36;;;;;;;4.57;3.40;;;;;;;;;;5032906;28;20530;-52
2021/08/23 08:54:04;;;;;;;3.77;3.40;;;;;;;;;;5034573;28;20527;-54
2021/08/23 08:56:32;;;;;;;4.67;3.30;;;;;;;;;;5037965;28;20464;-54
2021/08/23 08:58:59;;;;;;;3.73;3.33;;;;;;;;;;5036714;28;20576;-55
2021/08/23 09:01:28;;;;;;;4.70;2.83;;;;;;;;;;5036458;28;20870;-54
2021/08/23 09:04:01;;;;;;;4.17;2.77;;;;;;;;;;5037163;28;20444;-54
2021/08/23 09:06:37;;;;;;;4.53;3.27;;;;;;;;;;5037971;28;20831;-53
2021/08/23 09:09:09;;;;;;;4.97;2.80;;;;;;;;;;5037222;28;20484;-53
2021/08/23 09:11:36;;;;;;;4.80;3.67;;;;;;;;;;5037258;28;20527;-55
2021/08/23 09:14:07;;;;;;;4.00;3.60;;;;;;;;;;5037582;28;20959;-55
2021/08/23 09:16:36;;;;;;;3.40;3.10;;;;;;;;;;5035877;28;20432;-55
2021/08/23 09:19:03;;;;;;;4.70;3.50;;;;;;;;;;5035840;28;20466;-56
2021/08/23 09:21:31;;;;;;;4.03;3.57;;;;;;;;;;5035572;28;20472;-55
2021/08/23 09:23:59;;;;;;;6.20;3.50;;;;;;;;;;5035701;28;20441;-56
2021/08/23 09:26:31;;;;;;;5.20;2.87;;;;;;;;;;5035446;28;20936;-54
2021/08/23 09:28:59;;;;;;;3.47;3.17;;;;;;;;;;5035672;28;20486;-56
2021/08/23 09:31:27;;;;;;;4.07;3.67;;;;;;;;;;5035377;28;20449;-57
2021/08/23 09:33:57;;;;;;;5.53;3.30;;;;;;;;;;5035221;28;20840;-56
2021/08/23 09:36:25;;;;;;;3.80;3.00;;;;;;;;;;5035464;28;20496;-57
2021/08/23 09:38:59;;;;;;;3.80;3.00;;;;;;;;;;5035059;28;20441;-58
2021/08/23 09:41:26;;;;;;;4.13;3.60;;;;;;;;;;5035171;28;20556;-58
2021/08/23 09:44:00;;;;;;;4.37;3.70;;;;;;;;;;5035212;28;20938;-58
2021/08/23 09:46:28;;;;;;;4.80;4.07;;;;;;;;;;5035409;28;20442;-59
2021/08/23 09:48:58;;;;;;;3.83;3.53;;;;;;;;;;5034961;28;21007;-57
2021/08/23 09:51:27;;;;;;;5.13;3.30;;;;;;;;;;5035569;28;20438;-56
2021/08/23 09:54:04;;;;;;;4.10;2.90;;;;;;;;;;5035176;28;20478;-56
2021/08/23 09:56:33;;;;;;;3.17;2.93;;;;;;;;;;5034875;28;20497;-55
2021/08/23 09:59:00;;;;;;;4.93;3.20;;;;;;;;;;5035140;28;20457;-55
2021/08/23 10:01:28;;;;;;;4.97;3.30;;;;;;;;;;5035633;28;20467;-56
2021/08/23 10:03:56;;;;;;;3.30;3.00;;;;;;;;;;5034657;28;20914;-56
2021/08/23 10:06:23;;;;;;;3.70;3.40;;;;;;;;;;5034795;28;20508;-57
2021/08/23 10:08:51;;;;;;;3.13;2.83;;;;;;;;;;5035294;28;20490;-56
2021/08/23 10:11:19;;;;;;;4.47;2.37;;;;;;;;;;5035065;28;20454;-57
2021/08/23 10:13:47;;;;;;;2.97;2.47;;;;;;;;;;5034898;28;20525;-57
2021/08/23 10:16:14;;;;;;;3.07;2.37;;;;;;;;;;5034597;28;20459;-54
2021/08/23 10:18:41;;;;;;;7.03;2.47;;;;;;;;;;5034548;28;20471;-57
2021/08/23 10:21:11;;;;;;;3.67;2.87;;;;;;;;;;5034293;28;20953;-56
2021/08/23 10:23:39;;;;;;;3.43;2.67;;;;;;;;;;5034697;28;20590;-56
2021/08/23 10:26:06;;;;;;;3.23;2.27;;;;;;;;;;5034578;28;20832;-56
2021/08/23 10:28:37;;;;;;;4.10;2.63;;;;;;;;;;5034201;28;21037;-57
2021/08/23 10:31:08;;;;;;;4.30;2.57;;;;;;;;;;5034337;28;20523;-57
2021/08/23 10:33:36;;;;;;;4.43;2.47;;;;;;;;;;5033940;28;20456;-57
2021/08/23 10:36:06;;;;;;;3.03;2.40;;;;;;;;;;5034446;28;20451;-55
2021/08/23 10:38:35;;;;;;;4.07;2.30;;;;;;;;;;5034028;28;20640;-55
2021/08/23 10:41:10;;;;;;;2.23;2.03;;;;;;;;;;5033952;28;20543;-55
2021/08/23 10:43:44;;;;;;;3.10;2.20;;;;;;;;;;5033825;28;20962;-57
2021/08/23 10:46:25;;;;;;;2.80;2.00;;;;;;;;;;5034252;28;20451;-57
2021/08/23 10:48:53;;;;;;;3.27;2.33;;;;;;;;;;5033698;28;20496;-56
2021/08/23 10:51:30;;;;;;;2.83;2.17;;;;;;;;;;5034158;28;20436;-56
2021/08/23 10:53:59;;;;;;;3.50;2.43;;;;;;;;;;5033960;28;20452;-56
2021/08/23 10:56:35;;;;;;;2.57;2.07;;;;;;;;;;5034010;28;20868;-56
2021/08/23 10:59:12;;;;;;;3.33;2.40;;;;;;;;;;5034020;28;20463;-56
2021/08/23 11:01:39;;;;;;;3.60;1.70;;;;;;;;;;5033551;28;20433;-55
2021/08/23 11:04:08;;;;;;;1.97;1.73;;;;;;;;;;5033516;28;20448;-55
2021/08/23 11:06:37;;;;;;;2.07;1.60;;;;;;;;;;5033646;28;20448;-55
2021/08/23 11:09:10;;;;;;;2.30;2.20;;;;;;;;;;5033510;28;20505;-54
2021/08/23 11:11:38;;;;;;;2.30;1.70;;;;;;;;;;5033593;28;20457;-55
2021/08/23 11:14:16;;;;;;;1.60;1.30;;;;;;;;;;5033379;28;20445;-56
2021/08/23 11:16:43;;;;;;;2.10;1.90;;;;;;;;;;5032995;28;20467;-56
2021/08/23 11:19:11;;;;;;;2.07;1.60;;;;;;;;;;5033261;28;20556;-55
2021/08/23 11:21:40;;;;;;;2.27;2.03;;;;;;;;;;5033347;28;20937;-55
2021/08/23 11:24:10;;;;;;;3.43;1.90;;;;;;;;;;5033714;28;20449;-55
2021/08/23 11:26:38;;;;;;;2.03;1.67;;;;;;;;;;5033500;28;20453;-55
2021/08/23 11:29:10;;;;;;;2.80;1.30;;;;;;;;;;5033343;28;20578;-56
2021/08/23 11:31:37;;;;;;;1.77;1.20;;;;;;;;;;5033010;28;20954;-55
2021/08/23 11:34:05;;;;;;;2.73;1.50;;;;;;;;;;5033035;28;20962;-55
2021/08/23 11:36:35;;;;;;;1.67;1.33;;;;;;;;;;5033030;28;20937;-57
2021/08/23 11:39:12;;;;;;;2.47;1.20;;;;;;;;;;5033360;28;20470;-57
2021/08/23 11:41:40;;;;;;;2.23;1.60;;;;;;;;;;5033228;28;20498;-57
2021/08/23 11:44:07;;;;;;;3.20;1.80;;;;;;;;;;5033328;28;20448;-57
2021/08/23 11:46:34;;;;;;;1.93;1.50;;;;;;;;;;5033105;28;20551;-57
2021/08/23 11:49:02;;;;;;;1.63;1.10;;;;;;;;;;5032472;28;21077;-57
2021/08/23 11:51:29;;;;;;;6.03;1.40;;;;;;;;;;5033841;28;20544;-57
2021/08/23 11:53:57;;;;;;;2.50;1.50;;;;;;;;;;5032925;28;20506;-56
2021/08/23 11:56:26;;;;;;;1.43;1.13;;;;;;;;;;5032736;28;20510;-56
2021/08/23 11:58:53;;;;;;;1.40;1.13;;;;;;;;;;5032948;28;20480;-56
2021/08/23 12:01:20;;;;;;;1.63;1.37;;;;;;;;;;5033080;28;20883;-53
2021/08/23 12:03:58;;;;;;;4.13;1.50;;;;;;;;;;5032473;28;20502;-55
2021/08/23 12:06:34;;;;;;;3.40;1.57;;;;;;;;;;5033414;28;20519;-56
2021/08/23 12:09:01;;;;;;;1.83;1.57;;;;;;;;;;5033020;28;20532;-55
2021/08/23 12:11:41;;;;;;;2.40;1.40;;;;;;;;;;5033065;28;20506;-56
2021/08/23 12:14:17;;;;;;;2.20;1.13;;;;;;;;;;5033022;28;20425;-57
2021/08/23 12:16:45;;;;;;;3.63;1.50;;;;;;;;;;5032979;28;20526;-54
2021/08/23 12:19:12;;;;;;;1.73;1.47;;;;;;;;;;5033046;28;20508;-55
2021/08/23 12:21:40;;;;;;;2.00;1.60;;;;;;;;;;5032480;28;20445;-55
2021/08/23 12:24:10;;;;;;;2.60;1.53;;;;;;;;;;5032707;28;20450;-55
2021/08/23 12:26:41;;;;;;;1.63;1.20;;;;;;;;;;5032927;28;20486;-56
2021/08/23 12:29:16;;;;;;;3.80;1.60;;;;;;;;;;5034484;28;20484;-56
2021/08/23 12:31:48;;;;;;;2.03;1.30;;;;;;;;;;5036987;28;20444;-56
2021/08/23 12:34:16;;;;;;;2.33;1.50;;;;;;;;;;5036797;28;20442;-56
2021/08/23 12:36:43;;;;;;;2.23;1.30;;;;;;;;;;5037354;28;20450;-56
2021/08/23 12:39:11;;;;;;;3.50;1.70;;;;;;;;;;5036387;28;21055;-56
2021/08/23 12:41:41;;;;;;;3.90;1.40;;;;;;;;;;5036529;28;20506;-56
2021/08/23 12:44:08;;;;;;;2.10;1.63;;;;;;;;;;5036508;28;20441;-56
2021/08/23 12:46:35;;;;;;;2.20;1.27;;;;;;;;;;5036390;28;20448;-56
2021/08/23 12:49:03;;;;;;;4.20;2.10;;;;;;;;;;5060676;22;20489;-59
2021/08/23 12:51:30;;;;;;;1.97;1.60;;;;;;;;;;5016632;28;20431;-62
2021/08/23 12:53:58;;;;;;;2.50;1.67;;;;;;;;;;5016546;28;20472;-61
2021/08/23 12:56:25;;;;;;;2.40;1.50;;;;;;;;;;5016367;28;20448;-61
2021/08/23 12:58:56;;;;;;;2.67;1.67;;;;;;;;;;5016176;28;20548;-62
2021/08/23 13:01:24;;;;;;;1.50;1.13;;;;;;;;;;5016289;28;20437;-61
2021/08/23 13:03:51;;;;;;;4.50;1.47;;;;;;;;;;5016097;28;20445;-61
2021/08/23 13:06:18;;;;;;;2.00;1.40;;;;;;;;;;5015850;28;20946;-61
2021/08/23 13:08:46;;;;;;;1.60;1.30;;;;;;;;;;5016151;28;20444;-61
2021/08/23 13:11:13;;;;;;;3.30;1.80;;;;;;;;;;5015628;28;20906;-61
2021/08/23 13:13:41;;;;;;;3.67;2.40;;;;;;;;;;5016102;28;20457;-61
2021/08/23 13:16:10;;;;;;;2.90;1.90;;;;;;;;;;5015646;28;20525;-61
2021/08/23 13:18:38;;;;;;;2.43;1.80;;;;;;;;;;5015886;28;20549;-59
2021/08/23 13:21:05;;;;;;;2.90;1.73;;;;;;;;;;5015769;28;20477;-61
2021/08/23 13:23:33;;;;;;;2.57;2.20;;;;;;;;;;5016150;28;20599;-61
2021/08/23 13:26:00;;;;;;;2.30;1.80;;;;;;;;;;5015854;28;20519;-59
2021/08/23 13:28:28;;;;;;;2.07;1.87;;;;;;;;;;5016324;28;20511;-61
2021/08/23 13:30:55;;;;;;;2.40;1.70;;;;;;;;;;5015333;28;20550;-60
2021/08/23 13:33:24;;;;;;;2.40;1.80;;;;;;;;;;5015483;28;20796;-61
2021/08/23 13:35:51;;;;;;;2.17;1.97;;;;;;;;;;5015779;28;20460;-61
2021/08/23 13:38:18;;;;;;;3.50;1.83;;;;;;;;;;5015563;28;20508;-61
2021/08/23 13:40:46;;;;;;;2.50;2.07;;;;;;;;;;5014881;28;20893;-61
2021/08/23 13:43:15;;;;;;;2.30;2.00;;;;;;;;;;5015880;28;20795;-61
2021/08/23 13:45:42;;;;;;;2.20;1.80;;;;;;;;;;5015759;28;20453;-61
2021/08/23 13:48:12;;;;;;;3.60;2.00;;;;;;;;;;5015446;28;20869;-62
2021/08/23 13:50:42;;;;;;;2.33;2.00;;;;;;;;;;5015149;28;20903;-61
2021/08/23 13:53:09;;;;;;;4.10;2.17;;;;;;;;;;5015185;28;20446;-61
2021/08/23 13:55:38;;;;;;;3.30;2.70;;;;;;;;;;5015233;28;20450;-61
2021/08/23 13:58:05;;;;;;;2.80;2.03;;;;;;;;;;5015443;28;20544;-61
2021/08/23 14:00:33;;;;;;;3.63;2.23;;;;;;;;;;5015247;28;20462;-60
2021/08/23 14:03:00;;;;;;;2.20;1.90;;;;;;;;;;5015234;28;20447;-61
2021/08/23 14:05:28;;;;;;;2.40;2.10;;;;;;;;;;5015136;28;20442;-61
2021/08/23 14:07:56;;;;;;;5.90;2.30;;;;;;;;;;5014674;28;20450;-61
2021/08/23 14:10:24;;;;;;;1.97;1.53;;;;;;;;;;5014433;28;20536;-61
2021/08/23 14:12:51;;;;;;;3.20;2.07;;;;;;;;;;5014727;28;20446;-61
2021/08/23 14:15:19;;;;;;;4.07;2.20;;;;;;;;;;5014951;28;20455;-60
2021/08/23 14:17:46;;;;;;;2.73;2.07;;;;;;;;;;5014782;28;20451;-61
2021/08/23 14:20:14;;;;;;;2.77;2.00;;;;;;;;;;5014576;28;20593;-61
2021/08/23 14:22:42;;;;;;;2.80;1.90;;;;;;;;;;5014487;28;20578;-61
2021/08/23 14:25:12;;;;;;;2.63;2.20;;;;;;;;;;5014028;28;20450;-61
2021/08/23 14:27:39;;;;;;;2.80;1.73;;;;;;;;;;5014179;28;20934;-63
2021/08/23 14:30:07;;;;;;;4.70;2.40;;;;;;;;;;5014636;28;20893;-62
2021/08/23 14:32:34;;;;;;;3.13;2.20;;;;;;;;;;5014905;28;20440;-62
2021/08/23 14:35:02;;;;;;;3.23;2.03;;;;;;;;;;5014722;28;20473;-62
2021/08/23 14:37:29;;;;;;;2.60;2.10;;;;;;;;;;5014318;28;20508;-62
2021/08/23 14:39:56;;;;;;;3.37;2.53;;;;;;;;;;5014310;28;20466;-62
2021/08/23 14:42:25;;;;;;;2.90;2.00;;;;;;;;;;5014630;28;20499;-62
2021/08/23 14:44:52;;;;;;;3.63;2.43;;;;;;;;;;5014550;28;20508;-62
2021/08/23 14:47:19;;;;;;;3.40;2.10;;;;;;;;;;5014046;28;20458;-61
2021/08/23 14:49:48;;;;;;;3.27;2.23;;;;;;;;;;5013862;28;20497;-60
2021/08/23 14:52:15;;;;;;;4.93;2.30;;;;;;;;;;5013459;28;20481;-61
2021/08/23 14:54:43;;;;;;;3.43;1.80;;;;;;;;;;5014139;28;20525;-60